Time;durP1;ratioP1;P1;durP2;ratioP2;P2;SDS_P1;SDS_P2;PMS_P1;PMS_P2;Temp;Humidity;BMP_temperature;BMP_pressure;BME280_temperature;BME280_humidity;BME280_pressure;Samples;Min_cycle;Max_cycle;Signal;HPM_P1;HPM_P2
2021/12/02 00:00:44;;;;;;;2.67;0.40;;;;;;;;;;5121163;27;20219;-71
2021/12/02 00:03:11;;;;;;;2.63;0.70;;;;;;;;;;5121158;27;20219;-71
2021/12/02 00:05:37;;;;;;;1.00;0.30;;;;;;;;;;5119017;27;20203;-71
2021/12/02 00:08:04;;;;;;;2.63;0.60;;;;;;;;;;5122612;27;20623;-71
2021/12/02 00:10:34;;;;;;;1.50;0.50;;;;;;;;;;5120377;27;20224;-71
2021/12/02 00:13:01;;;;;;;2.67;0.43;;;;;;;;;;5120582;27;20292;-71
2021/12/02 00:15:35;;;;;;;3.40;0.60;;;;;;;;;;5119824;27;20294;-71
2021/12/02 00:18:19;;;;;;;3.83;0.30;;;;;;;;;;5121839;27;20252;-71
2021/12/02 00:23:36;;;;;;;2.73;0.50;;;;;;;;;;5112896;27;20254;-71
2021/12/02 00:26:09;;;;;;;4.90;0.50;;;;;;;;;;5119269;27;20575;-71
2021/12/02 00:28:38;;;;;;;3.63;0.70;;;;;;;;;;5120298;27;20208;-71
2021/12/02 00:31:04;;;;;;;2.83;0.40;;;;;;;;;;5119006;27;20208;-71
2021/12/02 00:33:33;;;;;;;2.53;0.40;;;;;;;;;;5118859;27;20621;-71
2021/12/02 00:36:00;;;;;;;1.23;0.30;;;;;;;;;;5122187;27;20248;-71
2021/12/02 00:38:27;;;;;;;2.07;0.57;;;;;;;;;;5121541;27;20238;-71
2021/12/02 00:40:54;;;;;;;4.23;0.60;;;;;;;;;;5117602;27;20224;-71
2021/12/02 00:43:22;;;;;;;4.73;0.50;;;;;;;;;;5119041;27;20305;-71
2021/12/02 00:45:48;;;;;;;3.03;0.60;;;;;;;;;;5120652;27;20212;-72
2021/12/02 00:48:16;;;;;;;3.53;0.40;;;;;;;;;;5118785;27;21110;-71
2021/12/02 00:50:45;;;;;;;5.57;0.93;;;;;;;;;;5121373;27;20215;-71
2021/12/02 00:53:12;;;;;;;4.40;0.50;;;;;;;;;;5120720;27;20208;-71
2021/12/02 00:55:40;;;;;;;3.70;0.70;;;;;;;;;;5123973;27;20238;-71
2021/12/02 00:58:07;;;;;;;2.50;0.60;;;;;;;;;;5123505;27;20280;-71
2021/12/02 01:00:35;;;;;;;4.07;1.07;;;;;;;;;;5124935;27;20213;-72
2021/12/02 01:03:02;;;;;;;1.63;0.40;;;;;;;;;;5124307;27;20256;-71
2021/12/02 01:05:29;;;;;;;1.33;0.30;;;;;;;;;;5124029;27;20294;-71
2021/12/02 01:07:59;;;;;;;3.90;0.67;;;;;;;;;;5122969;27;20824;-71
2021/12/02 01:10:26;;;;;;;2.70;0.30;;;;;;;;;;5123026;27;20224;-72
2021/12/02 01:12:52;;;;;;;2.30;0.30;;;;;;;;;;5122887;27;20323;-71
2021/12/02 01:15:19;;;;;;;2.47;0.30;;;;;;;;;;5123548;27;20219;-71
2021/12/02 01:17:47;;;;;;;4.03;0.50;;;;;;;;;;5121170;27;20227;-71
2021/12/02 01:20:13;;;;;;;2.03;0.43;;;;;;;;;;5121752;27;20204;-71
2021/12/02 01:22:40;;;;;;;3.23;0.30;;;;;;;;;;5122758;27;20222;-71
2021/12/02 01:25:08;;;;;;;1.73;0.50;;;;;;;;;;5122702;27;20227;-71
2021/12/02 01:27:36;;;;;;;2.53;0.57;;;;;;;;;;5123087;27;20208;-71
2021/12/02 01:30:05;;;;;;;3.47;0.50;;;;;;;;;;5123514;27;20540;-71
2021/12/02 01:32:33;;;;;;;1.37;0.30;;;;;;;;;;5123687;27;20220;-71
2021/12/02 01:35:04;;;;;;;1.40;0.30;;;;;;;;;;5124521;27;20711;-71
2021/12/02 01:37:30;;;;;;;0.33;0.20;;;;;;;;;;5123152;27;20699;-72
2021/12/02 01:39:58;;;;;;;0.80;0.20;;;;;;;;;;5122632;27;21327;-71
2021/12/02 01:42:26;;;;;;;0.93;0.27;;;;;;;;;;5122373;27;20223;-71
2021/12/02 01:44:54;;;;;;;1.10;0.10;;;;;;;;;;5122302;27;20290;-71
2021/12/02 01:47:24;;;;;;;0.80;0.13;;;;;;;;;;5125014;27;20215;-71
2021/12/02 01:49:55;;;;;;;0.23;0.10;;;;;;;;;;5121867;27;20253;-71
2021/12/02 01:52:30;;;;;;;0.50;0.20;;;;;;;;;;5124149;27;20247;-71
2021/12/02 01:55:09;;;;;;;2.27;0.30;;;;;;;;;;5125429;27;20211;-71
2021/12/02 01:57:37;;;;;;;1.47;0.20;;;;;;;;;;5124012;27;20239;-71
2021/12/02 02:00:09;;;;;;;2.70;0.30;;;;;;;;;;5122375;27;20264;-71
2021/12/02 02:02:37;;;;;;;2.40;0.73;;;;;;;;;;5120957;27;20553;-71
2021/12/02 02:05:08;;;;;;;3.53;0.20;;;;;;;;;;5122686;27;20215;-71
2021/12/02 02:07:42;;;;;;;1.17;0.50;;;;;;;;;;5123899;27;20254;-71
2021/12/02 02:10:08;;;;;;;2.00;0.53;;;;;;;;;;5123209;27;20590;-72
2021/12/02 02:12:35;;;;;;;1.87;0.30;;;;;;;;;;5123596;27;20216;-71
2021/12/02 02:15:02;;;;;;;3.17;0.60;;;;;;;;;;5123247;27;20217;-72
2021/12/02 02:17:32;;;;;;;3.80;0.53;;;;;;;;;;5122766;27;20228;-72
2021/12/02 02:19:59;;;;;;;3.00;0.30;;;;;;;;;;5121659;27;20902;-72
2021/12/02 02:22:27;;;;;;;2.13;0.20;;;;;;;;;;5121804;27;20208;-72
2021/12/02 02:24:54;;;;;;;1.20;0.53;;;;;;;;;;5119218;27;20592;-72
2021/12/02 02:27:21;;;;;;;2.97;0.30;;;;;;;;;;5121578;27;20204;-72
2021/12/02 02:29:48;;;;;;;2.57;0.30;;;;;;;;;;5120079;27;20299;-72
2021/12/02 02:32:14;;;;;;;1.57;0.20;;;;;;;;;;5119324;27;20206;-76
2021/12/02 02:34:40;;;;;;;0.37;0.20;;;;;;;;;;5123443;27;20213;-72
2021/12/02 02:37:07;;;;;;;2.53;0.33;;;;;;;;;;5120523;27;20208;-72
2021/12/02 02:39:37;;;;;;;0.73;0.30;;;;;;;;;;5121258;27;20227;-72
2021/12/02 02:42:06;;;;;;;0.43;0.17;;;;;;;;;;5120129;27;20204;-72
2021/12/02 02:44:34;;;;;;;1.13;0.10;;;;;;;;;;5121222;27;20211;-72
2021/12/02 02:47:00;;;;;;;1.00;0.10;;;;;;;;;;5121105;27;20222;-72
2021/12/02 02:49:27;;;;;;;0.47;0.10;;;;;;;;;;5120794;27;20228;-72
2021/12/02 02:51:53;;;;;;;0.47;0.10;;;;;;;;;;5121842;27;20218;-72
2021/12/02 02:54:22;;;;;;;0.50;0.10;;;;;;;;;;5119476;27;21186;-72
2021/12/02 02:56:57;;;;;;;0.97;0.10;;;;;;;;;;5123450;27;20229;-72
2021/12/02 02:59:32;;;;;;;0.40;0.13;;;;;;;;;;5120662;27;20204;-72
2021/12/02 03:02:07;;;;;;;1.27;0.17;;;;;;;;;;5119392;27;20203;-72
2021/12/02 03:04:41;;;;;;;0.40;0.10;;;;;;;;;;5119344;27;20290;-73
2021/12/02 03:07:11;;;;;;;1.33;1.07;;;;;;;;;;5120936;27;20205;-73
2021/12/02 03:09:50;;;;;;;0.53;0.20;;;;;;;;;;5119384;27;20271;-72
2021/12/02 03:12:24;;;;;;;2.27;0.30;;;;;;;;;;5123736;27;20211;-72
2021/12/02 03:17:35;;;;;;;0.53;0.20;;;;;;;;;;5117735;27;20231;-72
2021/12/02 03:20:02;;;;;;;1.07;0.33;;;;;;;;;;5116698;27;20204;-72
2021/12/02 03:22:29;;;;;;;0.60;0.23;;;;;;;;;;5121324;27;20215;-72
2021/12/02 03:24:56;;;;;;;0.90;0.27;;;;;;;;;;5122291;27;20228;-72
2021/12/02 03:27:24;;;;;;;0.97;0.10;;;;;;;;;;5117691;27;20216;-72
2021/12/02 03:29:50;;;;;;;1.43;0.20;;;;;;;;;;5121118;27;20216;-72
2021/12/02 03:32:17;;;;;;;2.30;0.20;;;;;;;;;;5121788;27;20223;-72
2021/12/02 03:34:43;;;;;;;0.90;0.27;;;;;;;;;;5122318;27;20204;-72
2021/12/02 03:37:11;;;;;;;1.27;0.10;;;;;;;;;;5122299;27;20618;-72
2021/12/02 03:39:37;;;;;;;1.03;0.10;;;;;;;;;;5120353;27;20239;-72
2021/12/02 03:42:05;;;;;;;4.17;0.20;;;;;;;;;;5120219;27;20211;-72
2021/12/02 03:44:32;;;;;;;0.90;0.20;;;;;;;;;;5118305;27;20211;-72
2021/12/02 03:47:00;;;;;;;4.30;0.40;;;;;;;;;;5123065;27;20264;-72
2021/12/02 03:49:27;;;;;;;2.23;0.20;;;;;;;;;;5117818;27;20686;-72
2021/12/02 03:51:54;;;;;;;1.30;0.27;;;;;;;;;;5120864;27;20219;-72
2021/12/02 03:54:20;;;;;;;1.73;0.40;;;;;;;;;;5122831;27;20789;-72
2021/12/02 03:56:47;;;;;;;3.07;0.60;;;;;;;;;;5120398;27;20613;-71
2021/12/02 03:59:14;;;;;;;3.30;0.53;;;;;;;;;;5123375;27;20228;-72
2021/12/02 04:01:41;;;;;;;2.60;0.73;;;;;;;;;;5120481;27;20330;-72
2021/12/02 04:04:08;;;;;;;1.83;0.40;;;;;;;;;;5121713;27;20283;-72
2021/12/02 04:06:34;;;;;;;5.40;0.60;;;;;;;;;;5119904;27;20212;-72
2021/12/02 04:09:04;;;;;;;4.90;0.60;;;;;;;;;;5118924;27;20786;-71
2021/12/02 04:11:34;;;;;;;2.50;0.47;;;;;;;;;;5120485;27;20455;-71
2021/12/02 04:14:08;;;;;;;2.87;0.40;;;;;;;;;;5120339;27;20296;-72
2021/12/02 04:16:38;;;;;;;3.23;0.47;;;;;;;;;;5119648;27;21046;-72
2021/12/02 04:19:08;;;;;;;2.97;0.50;;;;;;;;;;5122160;27;20222;-72
2021/12/02 04:21:35;;;;;;;1.13;0.13;;;;;;;;;;5119880;27;20215;-72
2021/12/02 04:24:02;;;;;;;0.80;0.20;;;;;;;;;;5122162;27;20957;-72
2021/12/02 04:26:29;;;;;;;1.77;0.30;;;;;;;;;;5118674;27;20480;-72
2021/12/02 04:28:55;;;;;;;3.70;0.40;;;;;;;;;;5119336;27;20650;-73
2021/12/02 04:31:21;;;;;;;1.03;0.30;;;;;;;;;;5124339;27;20216;-72
2021/12/02 04:33:48;;;;;;;1.33;0.20;;;;;;;;;;5125185;27;21103;-72
2021/12/02 04:36:15;;;;;;;1.60;0.27;;;;;;;;;;5126093;27;20265;-72
2021/12/02 04:38:42;;;;;;;1.60;0.20;;;;;;;;;;5123551;27;20294;-72
2021/12/02 04:41:08;;;;;;;1.63;0.20;;;;;;;;;;5126528;27;20765;-72
2021/12/02 04:43:35;;;;;;;2.00;0.30;;;;;;;;;;5122009;27;20637;-72
2021/12/02 04:46:01;;;;;;;1.40;0.37;;;;;;;;;;5124654;27;20295;-73
2021/12/02 04:48:27;;;;;;;2.17;0.17;;;;;;;;;;5124548;27;21257;-72
2021/12/02 04:50:54;;;;;;;1.53;0.40;;;;;;;;;;5127503;27;20355;-73
2021/12/02 04:53:22;;;;;;;1.40;0.27;;;;;;;;;;5124496;27;20216;-73
2021/12/02 04:55:48;;;;;;;0.77;0.10;;;;;;;;;;5125923;27;20959;-72
2021/12/02 04:58:14;;;;;;;2.60;0.20;;;;;;;;;;5125060;27;20309;-72
2021/12/02 05:00:41;;;;;;;2.60;0.20;;;;;;;;;;5122222;27;20811;-72
2021/12/02 05:03:07;;;;;;;2.50;0.20;;;;;;;;;;5124980;27;20246;-72
2021/12/02 05:05:34;;;;;;;2.97;0.20;;;;;;;;;;5123473;27;20216;-71
2021/12/02 05:08:01;;;;;;;0.53;0.20;;;;;;;;;;5121891;27;20371;-73
2021/12/02 05:10:29;;;;;;;3.07;0.23;;;;;;;;;;5122429;27;21024;-74
2021/12/02 05:12:55;;;;;;;2.83;0.20;;;;;;;;;;5125002;27;20264;-73
2021/12/02 05:15:22;;;;;;;1.37;0.20;;;;;;;;;;5123023;27;20299;-71
2021/12/02 05:17:48;;;;;;;0.47;0.10;;;;;;;;;;5122206;27;20234;-71
2021/12/02 05:20:15;;;;;;;1.23;0.40;;;;;;;;;;5126244;27;20227;-71
2021/12/02 05:22:41;;;;;;;1.83;0.87;;;;;;;;;;5123847;27;20223;-71
2021/12/02 05:25:09;;;;;;;0.50;0.13;;;;;;;;;;5123514;27;20273;-71
2021/12/02 05:27:36;;;;;;;2.80;1.10;;;;;;;;;;5121756;27;20260;-71
2021/12/02 05:30:04;;;;;;;1.23;0.30;;;;;;;;;;5122085;27;20207;-71
2021/12/02 05:32:31;;;;;;;2.23;0.30;;;;;;;;;;5121769;27;20223;-75
2021/12/02 05:34:57;;;;;;;3.13;0.30;;;;;;;;;;5123707;27;20218;-75
2021/12/02 05:37:24;;;;;;;0.97;0.30;;;;;;;;;;5119869;27;20231;-77
2021/12/02 05:39:51;;;;;;;1.63;0.50;;;;;;;;;;5119606;27;20690;-77
2021/12/02 05:42:17;;;;;;;0.97;0.20;;;;;;;;;;5120573;27;20211;-77
2021/12/02 05:44:45;;;;;;;5.33;0.40;;;;;;;;;;5123035;27;20207;-76
2021/12/02 05:47:12;;;;;;;1.47;0.30;;;;;;;;;;5121522;27;20207;-76
2021/12/02 05:49:38;;;;;;;2.63;0.20;;;;;;;;;;5123014;27;20778;-72
2021/12/02 05:52:05;;;;;;;2.13;0.40;;;;;;;;;;5126205;27;20291;-72
2021/12/02 05:54:31;;;;;;;4.43;0.30;;;;;;;;;;5122958;27;20276;-75
2021/12/02 05:56:58;;;;;;;4.93;0.40;;;;;;;;;;5124178;27;20285;-72
2021/12/02 05:59:25;;;;;;;0.63;0.10;;;;;;;;;;5124480;27;20231;-76
2021/12/02 06:01:53;;;;;;;0.10;0.10;;;;;;;;;;5124148;27;20879;-75
2021/12/02 06:04:19;;;;;;;1.23;0.20;;;;;;;;;;5124327;27;20316;-76
2021/12/02 06:06:46;;;;;;;1.33;0.10;;;;;;;;;;5122571;27;20236;-76
2021/12/02 06:09:12;;;;;;;2.07;0.17;;;;;;;;;;5122640;27;20626;-77
2021/12/02 06:11:39;;;;;;;0.40;0.10;;;;;;;;;;5124047;27;20319;-76
2021/12/02 06:14:05;;;;;;;0.70;0.20;;;;;;;;;;5122964;27;20216;-76
2021/12/02 06:16:31;;;;;;;0.87;0.10;;;;;;;;;;5120442;27;20208;-76
2021/12/02 06:18:59;;;;;;;0.93;0.00;;;;;;;;;;5124141;27;20234;-76
2021/12/02 06:21:26;;;;;;;1.53;0.17;;;;;;;;;;5122165;27;20566;-76
2021/12/02 06:23:52;;;;;;;0.10;0.10;;;;;;;;;;5120367;27;20224;-76
2021/12/02 06:26:19;;;;;;;1.00;0.20;;;;;;;;;;5120704;27;20220;-76
2021/12/02 06:28:45;;;;;;;0.53;0.00;;;;;;;;;;5122981;27;20200;-75
2021/12/02 06:31:11;;;;;;;1.23;0.20;;;;;;;;;;5121932;27;20734;-75
2021/12/02 06:33:38;;;;;;;0.70;0.10;;;;;;;;;;5123154;27;20220;-76
2021/12/02 06:36:06;;;;;;;0.63;0.17;;;;;;;;;;5123803;27;20207;-75
2021/12/02 06:38:32;;;;;;;0.97;0.20;;;;;;;;;;5121642;27;20240;-75
2021/12/02 06:40:59;;;;;;;0.47;0.10;;;;;;;;;;5121001;27;20596;-75
2021/12/02 06:43:25;;;;;;;0.33;0.00;;;;;;;;;;5122074;27;20222;-75
2021/12/02 06:45:51;;;;;;;1.80;0.10;;;;;;;;;;5123189;27;20795;-75
2021/12/02 06:48:18;;;;;;;0.63;0.10;;;;;;;;;;5120322;27;20242;-75
2021/12/02 06:50:44;;;;;;;0.23;0.10;;;;;;;;;;5121985;27;20216;-75
2021/12/02 06:53:16;;;;;;;0.60;0.10;;;;;;;;;;5119296;27;20210;-75
2021/12/02 06:55:42;;;;;;;0.63;0.20;;;;;;;;;;5120083;27;20228;-75
2021/12/02 06:58:09;;;;;;;0.07;0.07;;;;;;;;;;5122307;27;20369;-75
2021/12/02 07:00:35;;;;;;;1.03;0.10;;;;;;;;;;5120300;27;20272;-75
2021/12/02 07:03:02;;;;;;;0.10;0.10;;;;;;;;;;5101111;27;20223;-75
2021/12/02 07:05:32;;;;;;;0.93;0.10;;;;;;;;;;5123197;27;20239;-75
2021/12/02 07:07:58;;;;;;;0.20;0.10;;;;;;;;;;5119835;27;20369;-76
2021/12/02 07:10:28;;;;;;;2.03;0.20;;;;;;;;;;5118842;27;20752;-76
2021/12/02 07:12:56;;;;;;;0.60;0.13;;;;;;;;;;5119328;27;20216;-75
2021/12/02 07:15:26;;;;;;;0.80;0.20;;;;;;;;;;5118776;27;20245;-74
2021/12/02 07:17:56;;;;;;;0.20;0.10;;;;;;;;;;5118864;27;20229;-75
2021/12/02 07:20:22;;;;;;;2.53;0.10;;;;;;;;;;5117296;27;20224;-75
2021/12/02 07:22:49;;;;;;;1.27;0.40;;;;;;;;;;5119068;27;20236;-76
2021/12/02 07:25:15;;;;;;;2.10;0.63;;;;;;;;;;5120204;27;20223;-76
2021/12/02 07:27:43;;;;;;;1.30;0.50;;;;;;;;;;5118958;27;20568;-76
2021/12/02 07:30:10;;;;;;;2.13;0.90;;;;;;;;;;5118868;27;20655;-76
2021/12/02 07:32:39;;;;;;;2.43;0.70;;;;;;;;;;5118729;27;20650;-76
2021/12/02 07:35:10;;;;;;;0.93;0.30;;;;;;;;;;5121748;27;20291;-76
2021/12/02 07:37:37;;;;;;;1.00;0.37;;;;;;;;;;5118591;27;20252;-75
2021/12/02 07:40:04;;;;;;;0.53;0.30;;;;;;;;;;5118724;27;20239;-76
2021/12/02 07:42:32;;;;;;;0.70;0.20;;;;;;;;;;5118246;27;20263;-76
2021/12/02 07:45:00;;;;;;;1.97;0.10;;;;;;;;;;5119903;27;20610;-76
2021/12/02 07:47:27;;;;;;;2.10;0.27;;;;;;;;;;5119909;27;20227;-75
2021/12/02 07:49:53;;;;;;;2.70;0.20;;;;;;;;;;5119337;27;20220;-76
2021/12/02 07:52:22;;;;;;;0.80;0.57;;;;;;;;;;5117666;27;20814;-75
2021/12/02 07:54:51;;;;;;;0.47;0.07;;;;;;;;;;5120129;27;20350;-75
2021/12/02 07:57:18;;;;;;;0.90;0.40;;;;;;;;;;5120589;27;20226;-75
2021/12/02 07:59:44;;;;;;;2.20;0.30;;;;;;;;;;5119249;27;20227;-75
2021/12/02 08:02:15;;;;;;;1.33;0.37;;;;;;;;;;5117635;27;20220;-74
2021/12/02 08:04:42;;;;;;;2.93;0.30;;;;;;;;;;5118155;27;20237;-75
2021/12/02 08:07:09;;;;;;;2.00;0.30;;;;;;;;;;5120287;27;20210;-75
2021/12/02 08:09:35;;;;;;;4.50;0.30;;;;;;;;;;5118087;27;20228;-74
2021/12/02 08:12:04;;;;;;;3.10;0.40;;;;;;;;;;5119312;27;20211;-73
2021/12/02 08:14:31;;;;;;;2.00;0.47;;;;;;;;;;5115980;27;20215;-74
2021/12/02 08:16:58;;;;;;;4.67;0.53;;;;;;;;;;5118455;27;20234;-74
2021/12/02 08:19:25;;;;;;;1.77;0.40;;;;;;;;;;5117853;27;20832;-73
2021/12/02 08:21:52;;;;;;;0.60;0.20;;;;;;;;;;5118225;27;20253;-72
2021/12/02 08:24:21;;;;;;;3.40;0.30;;;;;;;;;;5116762;27;20215;-72
2021/12/02 08:26:48;;;;;;;2.47;0.30;;;;;;;;;;5118930;27;20685;-73
2021/12/02 08:29:14;;;;;;;1.93;0.20;;;;;;;;;;5119164;27;20207;-73
2021/12/02 08:31:41;;;;;;;1.13;0.20;;;;;;;;;;5121704;27;20906;-73
2021/12/02 08:34:07;;;;;;;1.33;0.30;;;;;;;;;;5118562;27;20211;-73
2021/12/02 08:36:42;;;;;;;0.50;0.17;;;;;;;;;;5119871;27;20267;-74
2021/12/02 08:39:12;;;;;;;1.93;0.20;;;;;;;;;;5119772;27;20712;-73
2021/12/02 08:41:43;;;;;;;0.60;0.20;;;;;;;;;;5116986;27;20224;-73
2021/12/02 08:44:10;;;;;;;1.33;0.47;;;;;;;;;;5119742;27;20200;-73
2021/12/02 08:46:36;;;;;;;1.50;0.20;;;;;;;;;;5114053;27;20250;-73
2021/12/02 08:49:04;;;;;;;2.20;0.17;;;;;;;;;;5108575;27;20668;-73
2021/12/02 08:51:31;;;;;;;0.23;0.10;;;;;;;;;;5107647;27;20215;-74
2021/12/02 08:53:59;;;;;;;0.90;0.33;;;;;;;;;;5119843;27;20759;-74
2021/12/02 08:56:25;;;;;;;0.87;0.23;;;;;;;;;;5118498;27;20685;-76
2021/12/02 08:58:52;;;;;;;0.97;0.10;;;;;;;;;;5118814;27;20224;-74
2021/12/02 09:01:19;;;;;;;2.40;0.30;;;;;;;;;;5118255;27;20315;-74
2021/12/02 09:03:45;;;;;;;1.03;0.20;;;;;;;;;;5117129;27;20247;-73
2021/12/02 09:06:12;;;;;;;0.90;0.20;;;;;;;;;;5116093;27;20207;-73
2021/12/02 09:08:40;;;;;;;3.83;0.50;;;;;;;;;;5117543;27;20545;-73
2021/12/02 09:11:10;;;;;;;1.27;0.40;;;;;;;;;;5116611;27;20270;-72
2021/12/02 09:13:36;;;;;;;1.83;0.70;;;;;;;;;;5095012;27;20257;-73
2021/12/02 09:16:03;;;;;;;1.17;0.30;;;;;;;;;;5098672;27;20253;-73
2021/12/02 09:18:29;;;;;;;0.30;0.20;;;;;;;;;;5109737;27;20732;-73
2021/12/02 09:20:57;;;;;;;1.80;0.27;;;;;;;;;;5110798;27;20231;-72
2021/12/02 09:23:24;;;;;;;1.17;0.17;;;;;;;;;;5117301;27;20208;-72
2021/12/02 09:25:50;;;;;;;0.57;0.10;;;;;;;;;;5119537;27;20227;-72
2021/12/02 09:28:18;;;;;;;0.90;0.10;;;;;;;;;;5118125;27;20697;-72
2021/12/02 09:30:45;;;;;;;0.30;0.10;;;;;;;;;;5119076;27;20216;-75
2021/12/02 09:33:11;;;;;;;0.97;0.10;;;;;;;;;;5119197;27;20556;-73
2021/12/02 09:35:38;;;;;;;2.13;0.30;;;;;;;;;;5119614;27;20215;-74
2021/12/02 09:38:06;;;;;;;0.40;0.10;;;;;;;;;;5122056;27;20211;-75
2021/12/02 09:40:32;;;;;;;0.47;0.10;;;;;;;;;;5121648;27;20802;-73
2021/12/02 09:42:59;;;;;;;0.80;0.20;;;;;;;;;;5118793;27;20209;-73
2021/12/02 09:45:27;;;;;;;2.23;0.20;;;;;;;;;;5119254;27;20621;-73
2021/12/02 09:47:53;;;;;;;0.97;0.23;;;;;;;;;;5122864;27;20272;-74
2021/12/02 09:50:25;;;;;;;1.07;0.33;;;;;;;;;;5121194;27;21139;-74
2021/12/02 09:52:52;;;;;;;0.50;0.20;;;;;;;;;;5119723;27;20610;-74
2021/12/02 09:55:23;;;;;;;0.27;0.07;;;;;;;;;;5120843;27;20219;-74
2021/12/02 09:57:54;;;;;;;0.40;0.10;;;;;;;;;;5122137;27;20200;-74
2021/12/02 10:00:25;;;;;;;1.77;0.10;;;;;;;;;;5120043;27;20232;-74
2021/12/02 10:02:56;;;;;;;0.97;0.20;;;;;;;;;;5116360;27;20214;-74
2021/12/02 10:05:31;;;;;;;1.40;0.10;;;;;;;;;;5119530;27;20926;-74
2021/12/02 10:08:02;;;;;;;1.10;0.30;;;;;;;;;;5122675;27;20206;-75
2021/12/02 10:10:32;;;;;;;0.23;0.10;;;;;;;;;;5119237;27;20481;-74
2021/12/02 10:13:25;;;;;;;1.70;0.23;;;;;;;;;;5120543;27;20310;-74
2021/12/02 10:16:16;;;;;;;0.60;0.10;;;;;;;;;;5118899;27;20222;-75
2021/12/02 10:18:55;;;;;;;0.77;0.13;;;;;;;;;;5119034;27;20207;-74
2021/12/02 10:21:29;;;;;;;0.40;0.10;;;;;;;;;;5120121;27;20228;-73
2021/12/02 10:24:00;;;;;;;0.90;0.20;;;;;;;;;;5120683;27;20217;-74
2021/12/02 10:26:27;;;;;;;0.57;0.10;;;;;;;;;;5119507;27;20228;-73
2021/12/02 10:28:53;;;;;;;0.47;0.10;;;;;;;;;;5121005;27;20670;-74
2021/12/02 10:31:24;;;;;;;0.93;0.20;;;;;;;;;;5119321;27;20269;-74
2021/12/02 10:33:56;;;;;;;0.57;0.10;;;;;;;;;;5119660;27;20273;-74
2021/12/02 10:36:28;;;;;;;1.10;0.20;;;;;;;;;;5119087;27;21078;-74
2021/12/02 10:38:57;;;;;;;0.10;0.10;;;;;;;;;;5124003;27;20235;-73
2021/12/02 10:41:26;;;;;;;0.57;0.10;;;;;;;;;;5118389;27;20227;-74
2021/12/02 10:44:06;;;;;;;2.10;0.30;;;;;;;;;;5121617;27;20308;-74
2021/12/02 10:46:33;;;;;;;0.93;0.10;;;;;;;;;;5120984;27;20227;-73
2021/12/02 10:49:01;;;;;;;1.37;0.60;;;;;;;;;;5119358;27;20610;-73
2021/12/02 10:51:36;;;;;;;0.77;0.23;;;;;;;;;;5122672;27;20211;-74
2021/12/02 10:54:06;;;;;;;2.03;0.20;;;;;;;;;;5120494;27;20280;-73
2021/12/02 10:56:33;;;;;;;0.50;0.27;;;;;;;;;;5120337;27;20220;-74
2021/12/02 10:59:22;;;;;;;0.90;0.23;;;;;;;;;;5122199;27;20288;-73
2021/12/02 11:01:49;;;;;;;1.63;0.20;;;;;;;;;;5120004;27;20232;-74
2021/12/02 11:04:17;;;;;;;0.33;0.20;;;;;;;;;;5123684;27;20666;-73
2021/12/02 11:06:43;;;;;;;1.33;0.20;;;;;;;;;;5118546;27;20219;-73
2021/12/02 11:09:24;;;;;;;0.93;0.30;;;;;;;;;;5119869;27;20612;-73
2021/12/02 11:12:08;;;;;;;0.60;0.30;;;;;;;;;;5117855;27;20723;-73
2021/12/02 11:14:36;;;;;;;2.63;0.20;;;;;;;;;;5119821;27;20303;-73
2021/12/02 11:17:15;;;;;;;0.43;0.30;;;;;;;;;;5121111;27;20785;-73
2021/12/02 11:19:46;;;;;;;1.57;0.40;;;;;;;;;;5120483;27;20202;-73
2021/12/02 11:22:15;;;;;;;0.40;0.10;;;;;;;;;;5121013;27;20204;-72
2021/12/02 11:24:41;;;;;;;0.87;0.20;;;;;;;;;;5119164;27;20609;-72
2021/12/02 11:27:15;;;;;;;1.77;0.20;;;;;;;;;;5122761;27;20208;-73
2021/12/02 11:29:57;;;;;;;0.33;0.10;;;;;;;;;;5120172;27;20211;-73
2021/12/02 11:32:26;;;;;;;1.13;0.20;;;;;;;;;;5122804;27;20450;-73
2021/12/02 11:35:02;;;;;;;0.37;0.13;;;;;;;;;;5122250;27;20203;-73
2021/12/02 11:37:29;;;;;;;0.63;0.40;;;;;;;;;;5121573;27;20610;-73
2021/12/02 11:39:57;;;;;;;1.37;0.30;;;;;;;;;;5121545;27;20813;-73
2021/12/02 11:42:24;;;;;;;2.43;0.40;;;;;;;;;;5119595;27;20211;-75
2021/12/02 11:44:50;;;;;;;1.77;0.30;;;;;;;;;;5121965;27;20212;-73
2021/12/02 11:47:18;;;;;;;1.03;0.60;;;;;;;;;;5118145;27;20216;-74
2021/12/02 11:49:44;;;;;;;1.33;0.23;;;;;;;;;;5122304;27;20767;-74
2021/12/02 11:52:13;;;;;;;0.83;0.23;;;;;;;;;;5119049;27;20252;-73
2021/12/02 11:54:40;;;;;;;0.43;0.27;;;;;;;;;;5117319;27;20224;-73
2021/12/02 11:57:07;;;;;;;2.40;0.40;;;;;;;;;;5118904;27;20277;-73
2021/12/02 11:59:34;;;;;;;1.87;0.77;;;;;;;;;;5118336;27;20212;-73
2021/12/02 12:02:01;;;;;;;0.90;0.40;;;;;;;;;;5117793;27;20264;-74
2021/12/02 12:04:27;;;;;;;3.43;0.90;;;;;;;;;;5118581;27;20609;-73
2021/12/02 12:07:08;;;;;;;3.43;0.50;;;;;;;;;;5117541;27;20208;-73
2021/12/02 12:09:36;;;;;;;1.90;0.60;;;;;;;;;;5119828;27;20260;-73
2021/12/02 12:12:02;;;;;;;3.07;0.50;;;;;;;;;;5114928;27;20916;-73
2021/12/02 12:14:35;;;;;;;1.60;0.30;;;;;;;;;;5119443;27;20903;-73
2021/12/02 12:17:06;;;;;;;1.77;0.40;;;;;;;;;;5117797;27;20706;-73
2021/12/02 12:19:38;;;;;;;3.40;0.60;;;;;;;;;;5119639;27;20653;-73
2021/12/02 12:22:06;;;;;;;0.97;0.23;;;;;;;;;;5116817;27;20314;-73
2021/12/02 12:24:46;;;;;;;3.23;0.40;;;;;;;;;;5116384;27;20863;-73
2021/12/02 12:27:16;;;;;;;2.53;0.40;;;;;;;;;;5118397;27;20669;-73
2021/12/02 12:29:43;;;;;;;0.70;0.30;;;;;;;;;;5120255;27;20256;-73
2021/12/02 12:32:48;;;;;;;1.23;0.30;;;;;;;;;;5118680;27;20239;-73
2021/12/02 12:35:38;;;;;;;2.07;0.57;;;;;;;;;;5114270;27;20285;-73
2021/12/02 12:38:20;;;;;;;0.93;0.20;;;;;;;;;;5116965;27;20200;-73
2021/12/02 12:40:50;;;;;;;1.03;0.40;;;;;;;;;;5116647;27;20342;-73
2021/12/02 12:43:30;;;;;;;4.53;0.40;;;;;;;;;;5116824;27;20536;-73
2021/12/02 12:46:08;;;;;;;1.73;0.33;;;;;;;;;;5119050;27;20641;-73
2021/12/02 12:48:35;;;;;;;2.30;0.20;;;;;;;;;;5116986;27;20228;-73
2021/12/02 12:51:20;;;;;;;1.40;0.33;;;;;;;;;;5118304;27;20238;-74
2021/12/02 12:53:50;;;;;;;1.17;0.30;;;;;;;;;;5120636;27;20204;-73
2021/12/02 12:56:19;;;;;;;1.33;0.50;;;;;;;;;;5121156;27;20220;-74
2021/12/02 12:59:07;;;;;;;1.30;0.50;;;;;;;;;;5124438;27;20217;-73
2021/12/02 13:01:35;;;;;;;1.50;0.50;;;;;;;;;;5117416;27;21039;-73
2021/12/02 13:04:20;;;;;;;2.70;0.60;;;;;;;;;;5122812;27;21175;-73
2021/12/02 13:07:02;;;;;;;3.40;0.37;;;;;;;;;;5121126;27;20212;-73
2021/12/02 13:09:41;;;;;;;2.43;0.50;;;;;;;;;;5118125;27;20212;-73
2021/12/02 13:12:11;;;;;;;2.93;0.70;;;;;;;;;;5120255;27;20200;-73
2021/12/02 13:14:39;;;;;;;2.00;0.50;;;;;;;;;;5120922;27;20205;-74
2021/12/02 13:17:41;;;;;;;1.60;0.60;;;;;;;;;;5119862;27;20232;-73
2021/12/02 13:20:31;;;;;;;4.30;0.77;;;;;;;;;;5121442;27;20207;-74
2021/12/02 13:23:27;;;;;;;2.43;0.40;;;;;;;;;;5122105;27;20215;-73
2021/12/02 13:25:55;;;;;;;1.87;0.40;;;;;;;;;;5121622;27;20288;-73
2021/12/02 13:28:27;;;;;;;4.53;0.67;;;;;;;;;;5118655;27;20205;-73
2021/12/02 13:30:56;;;;;;;2.00;0.43;;;;;;;;;;5120213;27;20276;-73
2021/12/02 13:33:32;;;;;;;2.37;0.50;;;;;;;;;;5120722;27;20977;-74
2021/12/02 13:35:59;;;;;;;1.63;0.50;;;;;;;;;;5123882;27;20645;-73
2021/12/02 13:38:26;;;;;;;1.40;0.47;;;;;;;;;;5123132;27;20204;-74
2021/12/02 13:40:52;;;;;;;2.93;0.37;;;;;;;;;;5120345;27;20499;-74
2021/12/02 13:43:19;;;;;;;2.83;0.80;;;;;;;;;;5123624;27;20741;-74
2021/12/02 13:45:46;;;;;;;4.27;1.10;;;;;;;;;;5122354;27;20715;-74
2021/12/02 13:48:17;;;;;;;2.47;0.70;;;;;;;;;;5120993;27;20322;-74
2021/12/02 13:50:47;;;;;;;3.50;0.90;;;;;;;;;;5119250;27;20613;-73
2021/12/02 13:53:14;;;;;;;2.47;1.00;;;;;;;;;;5123185;27;20257;-74
2021/12/02 13:55:44;;;;;;;1.93;0.87;;;;;;;;;;5121873;27;20223;-75
2021/12/02 13:58:17;;;;;;;3.10;1.10;;;;;;;;;;5120722;27;20630;-74
2021/12/02 14:00:45;;;;;;;2.07;0.83;;;;;;;;;;5120361;27;20231;-74
2021/12/02 14:03:16;;;;;;;2.53;0.90;;;;;;;;;;5121598;27;20211;-74
2021/12/02 14:05:45;;;;;;;2.63;1.13;;;;;;;;;;5119782;27;20223;-73
2021/12/02 14:08:13;;;;;;;2.87;0.80;;;;;;;;;;5122442;27;20698;-74
2021/12/02 14:10:41;;;;;;;2.30;1.20;;;;;;;;;;5120961;27;20961;-74
2021/12/02 14:13:09;;;;;;;3.80;1.37;;;;;;;;;;5120610;27;20735;-75
2021/12/02 14:15:38;;;;;;;2.53;1.13;;;;;;;;;;5121509;27;20218;-75
2021/12/02 14:18:06;;;;;;;2.77;1.30;;;;;;;;;;5120682;27;20213;-74
2021/12/02 14:20:37;;;;;;;2.63;1.27;;;;;;;;;;5121956;27;20213;-74
2021/12/02 14:23:06;;;;;;;11.80;2.03;;;;;;;;;;5121106;27;20633;-75
2021/12/02 14:25:34;;;;;;;6.83;1.40;;;;;;;;;;5116190;27;20224;-74
2021/12/02 14:28:11;;;;;;;3.80;1.23;;;;;;;;;;5120362;27;20662;-74
2021/12/02 14:30:39;;;;;;;30.53;4.73;;;;;;;;;;5120648;27;20212;-73
2021/12/02 14:33:07;;;;;;;25.43;3.30;;;;;;;;;;5119762;27;20294;-74
2021/12/02 14:35:44;;;;;;;39.17;4.17;;;;;;;;;;5118708;27;20300;-74
2021/12/02 14:38:29;;;;;;;42.83;5.37;;;;;;;;;;5118727;27;20208;-74
2021/12/02 14:40:59;;;;;;;35.97;4.50;;;;;;;;;;5119314;27;20281;-74
2021/12/02 14:43:29;;;;;;;11.57;2.00;;;;;;;;;;5117764;27;20323;-74
2021/12/02 14:46:17;;;;;;;6.73;1.10;;;;;;;;;;5119393;27;20224;-74
2021/12/02 14:48:45;;;;;;;8.07;1.30;;;;;;;;;;5121800;27;20278;-74
2021/12/02 14:51:15;;;;;;;4.90;1.07;;;;;;;;;;5120242;27;21129;-74
2021/12/02 14:53:44;;;;;;;5.20;0.83;;;;;;;;;;5117936;27;20212;-74
2021/12/02 14:56:24;;;;;;;5.73;1.30;;;;;;;;;;5119940;27;20324;-74
2021/12/02 14:59:08;;;;;;;5.43;0.70;;;;;;;;;;5118203;27;20347;-74
2021/12/02 15:01:35;;;;;;;2.83;1.30;;;;;;;;;;5118456;27;20551;-74